sensor_id;sensor_type;location;lat;lon;timestamp;P1;durP1;ratioP1;P2;durP2;ratioP2
69835;SDS011;57132;51.972;4.450;2023-05-07T00:01:48;51.85;;;28.90;;
69835;SDS011;57132;51.972;4.450;2023-05-07T00:04:14;44.05;;;27.48;;
69835;SDS011;57132;51.972;4.450;2023-05-07T00:06:39;48.58;;;26.33;;
69835;SDS011;57132;51.972;4.450;2023-05-07T00:09:04;51.58;;;29.08;;
69835;SDS011;57132;51.972;4.450;2023-05-07T00:11:30;47.38;;;27.88;;
69835;SDS011;57132;51.972;4.450;2023-05-07T00:13:56;54.85;;;28.88;;
69835;SDS011;57132;51.972;4.450;2023-05-07T00:16:22;51.08;;;28.65;;
69835;SDS011;57132;51.972;4.450;2023-05-07T00:18:47;49.70;;;29.10;;
69835;SDS011;57132;51.972;4.450;2023-05-07T00:21:13;46.90;;;26.17;;
69835;SDS011;57132;51.972;4.450;2023-05-07T00:23:38;45.97;;;27.13;;
69835;SDS011;57132;51.972;4.450;2023-05-07T00:26:03;50.30;;;28.08;;
69835;SDS011;57132;51.972;4.450;2023-05-07T00:28:29;53.80;;;30.23;;
69835;SDS011;57132;51.972;4.450;2023-05-07T00:30:54;47.08;;;26.90;;
69835;SDS011;57132;51.972;4.450;2023-05-07T00:33:20;44.83;;;26.33;;
69835;SDS011;57132;51.972;4.450;2023-05-07T00:35:45;52.95;;;28.75;;
69835;SDS011;57132;51.972;4.450;2023-05-07T00:38:11;43.85;;;25.85;;
69835;SDS011;57132;51.972;4.450;2023-05-07T00:40:36;49.88;;;27.67;;
69835;SDS011;57132;51.972;4.450;2023-05-07T00:43:02;43.40;;;27.10;;
69835;SDS011;57132;51.972;4.450;2023-05-07T00:45:27;51.85;;;27.83;;
69835;SDS011;57132;51.972;4.450;2023-05-07T00:47:57;45.08;;;27.13;;
69835;SDS011;57132;51.972;4.450;2023-05-07T00:50:25;45.50;;;25.90;;
69835;SDS011;57132;51.972;4.450;2023-05-07T00:52:51;48.53;;;26.63;;
69835;SDS011;57132;51.972;4.450;2023-05-07T00:55:17;43.60;;;25.02;;
69835;SDS011;57132;51.972;4.450;2023-05-07T00:57:43;44.83;;;25.60;;
69835;SDS011;57132;51.972;4.450;2023-05-07T01:00:09;49.35;;;26.73;;
69835;SDS011;57132;51.972;4.450;2023-05-07T01:02:35;43.67;;;25.85;;
69835;SDS011;57132;51.972;4.450;2023-05-07T01:05:01;49.35;;;26.95;;
69835;SDS011;57132;51.972;4.450;2023-05-07T01:07:31;42.80;;;26.38;;
69835;SDS011;57132;51.972;4.450;2023-05-07T01:09:57;41.83;;;25.33;;
69835;SDS011;57132;51.972;4.450;2023-05-07T01:12:23;47.25;;;25.70;;
69835;SDS011;57132;51.972;4.450;2023-05-07T01:14:50;46.38;;;27.00;;
69835;SDS011;57132;51.972;4.450;2023-05-07T01:17:16;46.60;;;26.48;;
69835;SDS011;57132;51.972;4.450;2023-05-07T01:19:42;44.63;;;24.75;;
69835;SDS011;57132;51.972;4.450;2023-05-07T01:22:08;50.53;;;27.27;;
69835;SDS011;57132;51.972;4.450;2023-05-07T01:24:36;46.05;;;26.42;;
69835;SDS011;57132;51.972;4.450;2023-05-07T01:27:02;43.35;;;26.27;;
69835;SDS011;57132;51.972;4.450;2023-05-07T01:29:27;44.88;;;25.77;;
69835;SDS011;57132;51.972;4.450;2023-05-07T01:31:53;44.78;;;24.17;;
69835;SDS011;57132;51.972;4.450;2023-05-07T01:34:20;42.58;;;24.00;;
69835;SDS011;57132;51.972;4.450;2023-05-07T01:36:47;44.83;;;25.50;;
69835;SDS011;57132;51.972;4.450;2023-05-07T01:39:13;41.20;;;24.25;;
69835;SDS011;57132;51.972;4.450;2023-05-07T01:41:40;43.97;;;25.23;;
69835;SDS011;57132;51.972;4.450;2023-05-07T01:44:07;42.63;;;25.45;;
69835;SDS011;57132;51.972;4.450;2023-05-07T01:46:33;44.92;;;25.08;;
69835;SDS011;57132;51.972;4.450;2023-05-07T01:48:59;42.28;;;24.25;;
69835;SDS011;57132;51.972;4.450;2023-05-07T01:51:25;42.42;;;24.85;;
69835;SDS011;57132;51.972;4.450;2023-05-07T01:53:51;45.88;;;24.90;;
69835;SDS011;57132;51.972;4.450;2023-05-07T01:56:18;44.47;;;25.13;;
69835;SDS011;57132;51.972;4.450;2023-05-07T01:58:45;43.55;;;25.50;;
69835;SDS011;57132;51.972;4.450;2023-05-07T02:01:13;42.38;;;24.30;;
69835;SDS011;57132;51.972;4.450;2023-05-07T02:03:39;41.95;;;23.55;;
69835;SDS011;57132;51.972;4.450;2023-05-07T02:06:05;43.97;;;25.90;;
69835;SDS011;57132;51.972;4.450;2023-05-07T02:08:30;41.70;;;24.13;;
69835;SDS011;57132;51.972;4.450;2023-05-07T02:10:56;37.50;;;24.73;;
69835;SDS011;57132;51.972;4.450;2023-05-07T02:13:21;37.97;;;22.23;;
69835;SDS011;57132;51.972;4.450;2023-05-07T02:15:47;44.50;;;27.65;;
69835;SDS011;57132;51.972;4.450;2023-05-07T02:18:15;45.10;;;26.20;;
69835;SDS011;57132;51.972;4.450;2023-05-07T02:20:41;41.90;;;25.83;;
69835;SDS011;57132;51.972;4.450;2023-05-07T02:23:06;49.45;;;27.77;;
69835;SDS011;57132;51.972;4.450;2023-05-07T02:25:31;44.92;;;28.40;;
69835;SDS011;57132;51.972;4.450;2023-05-07T02:27:57;42.92;;;26.25;;
69835;SDS011;57132;51.972;4.450;2023-05-07T02:30:22;47.42;;;28.50;;
69835;SDS011;57132;51.972;4.450;2023-05-07T02:32:47;47.53;;;28.38;;
69835;SDS011;57132;51.972;4.450;2023-05-07T02:35:13;49.72;;;30.70;;
69835;SDS011;57132;51.972;4.450;2023-05-07T02:37:38;49.15;;;28.48;;
69835;SDS011;57132;51.972;4.450;2023-05-07T02:40:04;44.38;;;27.60;;
69835;SDS011;57132;51.972;4.450;2023-05-07T02:42:30;52.00;;;31.40;;
69835;SDS011;57132;51.972;4.450;2023-05-07T02:44:55;46.83;;;30.13;;
69835;SDS011;57132;51.972;4.450;2023-05-07T02:47:20;45.63;;;29.00;;
69835;SDS011;57132;51.972;4.450;2023-05-07T02:49:46;47.67;;;28.42;;
69835;SDS011;57132;51.972;4.450;2023-05-07T02:52:11;49.35;;;32.00;;
69835;SDS011;57132;51.972;4.450;2023-05-07T02:54:36;43.92;;;27.92;;
69835;SDS011;57132;51.972;4.450;2023-05-07T02:57:01;49.20;;;30.30;;
69835;SDS011;57132;51.972;4.450;2023-05-07T02:59:28;43.42;;;27.77;;
69835;SDS011;57132;51.972;4.450;2023-05-07T03:01:53;44.85;;;30.10;;
69835;SDS011;57132;51.972;4.450;2023-05-07T03:04:18;48.88;;;30.80;;
69835;SDS011;57132;51.972;4.450;2023-05-07T03:06:44;48.08;;;30.60;;
69835;SDS011;57132;51.972;4.450;2023-05-07T03:09:09;46.92;;;29.75;;
69835;SDS011;57132;51.972;4.450;2023-05-07T03:11:35;46.53;;;29.15;;
69835;SDS011;57132;51.972;4.450;2023-05-07T03:14:01;45.58;;;28.27;;
69835;SDS011;57132;51.972;4.450;2023-05-07T03:16:27;47.38;;;29.08;;
69835;SDS011;57132;51.972;4.450;2023-05-07T03:18:52;50.17;;;30.55;;
69835;SDS011;57132;51.972;4.450;2023-05-07T03:21:18;49.35;;;30.55;;
69835;SDS011;57132;51.972;4.450;2023-05-07T03:23:43;47.20;;;29.65;;
69835;SDS011;57132;51.972;4.450;2023-05-07T03:26:09;43.97;;;29.60;;
69835;SDS011;57132;51.972;4.450;2023-05-07T03:28:34;46.28;;;27.48;;
69835;SDS011;57132;51.972;4.450;2023-05-07T03:31:00;43.85;;;28.42;;
69835;SDS011;57132;51.972;4.450;2023-05-07T03:33:25;45.65;;;28.75;;
69835;SDS011;57132;51.972;4.450;2023-05-07T03:35:52;42.30;;;27.95;;
69835;SDS011;57132;51.972;4.450;2023-05-07T03:38:17;44.03;;;29.30;;
69835;SDS011;57132;51.972;4.450;2023-05-07T03:40:42;39.22;;;27.95;;
69835;SDS011;57132;51.972;4.450;2023-05-07T03:43:08;43.65;;;29.85;;
69835;SDS011;57132;51.972;4.450;2023-05-07T03:45:33;41.80;;;28.88;;
69835;SDS011;57132;51.972;4.450;2023-05-07T03:47:58;43.00;;;28.17;;
69835;SDS011;57132;51.972;4.450;2023-05-07T03:50:24;42.83;;;28.48;;
69835;SDS011;57132;51.972;4.450;2023-05-07T03:52:49;41.95;;;27.95;;
69835;SDS011;57132;51.972;4.450;2023-05-07T03:55:14;43.17;;;28.80;;
69835;SDS011;57132;51.972;4.450;2023-05-07T03:57:40;40.20;;;28.77;;
69835;SDS011;57132;51.972;4.450;2023-05-07T04:00:05;35.90;;;25.58;;
69835;SDS011;57132;51.972;4.450;2023-05-07T04:02:32;36.05;;;26.17;;
69835;SDS011;57132;51.972;4.450;2023-05-07T04:04:58;38.72;;;26.98;;
69835;SDS011;57132;51.972;4.450;2023-05-07T04:07:23;42.28;;;30.15;;
69835;SDS011;57132;51.972;4.450;2023-05-07T04:09:48;40.40;;;28.00;;
69835;SDS011;57132;51.972;4.450;2023-05-07T04:12:14;36.70;;;26.60;;
69835;SDS011;57132;51.972;4.450;2023-05-07T04:14:40;42.95;;;27.58;;
69835;SDS011;57132;51.972;4.450;2023-05-07T04:17:05;37.30;;;27.95;;
69835;SDS011;57132;51.972;4.450;2023-05-07T04:19:33;39.70;;;28.65;;
69835;SDS011;57132;51.972;4.450;2023-05-07T04:21:58;37.60;;;28.27;;
69835;SDS011;57132;51.972;4.450;2023-05-07T04:24:24;36.28;;;27.02;;
69835;SDS011;57132;51.972;4.450;2023-05-07T04:26:49;43.47;;;29.17;;
69835;SDS011;57132;51.972;4.450;2023-05-07T04:29:16;36.90;;;25.88;;
69835;SDS011;57132;51.972;4.450;2023-05-07T04:31:41;38.60;;;28.13;;
69835;SDS011;57132;51.972;4.450;2023-05-07T04:34:09;37.88;;;26.65;;
69835;SDS011;57132;51.972;4.450;2023-05-07T04:36:38;37.40;;;26.33;;
69835;SDS011;57132;51.972;4.450;2023-05-07T04:39:03;38.42;;;25.52;;
69835;SDS011;57132;51.972;4.450;2023-05-07T04:41:29;38.40;;;28.42;;
69835;SDS011;57132;51.972;4.450;2023-05-07T04:43:55;34.95;;;26.45;;
69835;SDS011;57132;51.972;4.450;2023-05-07T04:46:21;36.10;;;26.38;;
69835;SDS011;57132;51.972;4.450;2023-05-07T04:48:47;39.60;;;27.83;;
69835;SDS011;57132;51.972;4.450;2023-05-07T04:51:12;33.80;;;24.60;;
69835;SDS011;57132;51.972;4.450;2023-05-07T04:53:38;34.22;;;25.35;;
69835;SDS011;57132;51.972;4.450;2023-05-07T04:56:03;32.67;;;25.50;;
69835;SDS011;57132;51.972;4.450;2023-05-07T04:58:29;35.33;;;25.55;;
69835;SDS011;57132;51.972;4.450;2023-05-07T05:00:56;35.97;;;24.83;;
69835;SDS011;57132;51.972;4.450;2023-05-07T05:03:22;34.28;;;25.48;;
69835;SDS011;57132;51.972;4.450;2023-05-07T05:05:48;32.25;;;23.42;;
69835;SDS011;57132;51.972;4.450;2023-05-07T05:08:14;35.30;;;24.10;;
69835;SDS011;57132;51.972;4.450;2023-05-07T05:10:39;35.15;;;24.63;;
69835;SDS011;57132;51.972;4.450;2023-05-07T05:13:06;34.58;;;25.88;;
69835;SDS011;57132;51.972;4.450;2023-05-07T05:15:32;36.63;;;25.48;;
69835;SDS011;57132;51.972;4.450;2023-05-07T05:17:58;37.20;;;25.88;;
69835;SDS011;57132;51.972;4.450;2023-05-07T05:20:23;36.25;;;25.83;;
69835;SDS011;57132;51.972;4.450;2023-05-07T05:22:49;31.23;;;23.63;;
69835;SDS011;57132;51.972;4.450;2023-05-07T05:25:14;36.40;;;26.02;;
69835;SDS011;57132;51.972;4.450;2023-05-07T05:27:40;39.78;;;27.10;;
69835;SDS011;57132;51.972;4.450;2023-05-07T05:30:05;32.72;;;25.05;;
69835;SDS011;57132;51.972;4.450;2023-05-07T05:32:31;35.03;;;24.70;;
69835;SDS011;57132;51.972;4.450;2023-05-07T05:34:56;35.30;;;25.15;;
69835;SDS011;57132;51.972;4.450;2023-05-07T05:37:22;37.75;;;26.50;;
69835;SDS011;57132;51.972;4.450;2023-05-07T05:39:47;33.92;;;25.90;;
69835;SDS011;57132;51.972;4.450;2023-05-07T05:42:12;34.30;;;26.25;;
69835;SDS011;57132;51.972;4.450;2023-05-07T05:44:38;32.95;;;25.33;;
69835;SDS011;57132;51.972;4.450;2023-05-07T05:47:03;33.10;;;26.10;;
69835;SDS011;57132;51.972;4.450;2023-05-07T05:49:28;34.17;;;24.13;;
69835;SDS011;57132;51.972;4.450;2023-05-07T05:51:54;35.80;;;24.98;;
69835;SDS011;57132;51.972;4.450;2023-05-07T05:54:20;34.45;;;25.35;;
69835;SDS011;57132;51.972;4.450;2023-05-07T05:56:46;38.03;;;25.60;;
69835;SDS011;57132;51.972;4.450;2023-05-07T05:59:11;31.67;;;23.98;;
69835;SDS011;57132;51.972;4.450;2023-05-07T06:01:36;28.98;;;23.90;;
69835;SDS011;57132;51.972;4.450;2023-05-07T06:04:02;32.95;;;24.92;;
69835;SDS011;57132;51.972;4.450;2023-05-07T06:06:27;31.73;;;24.77;;
69835;SDS011;57132;51.972;4.450;2023-05-07T06:08:53;32.35;;;23.25;;
69835;SDS011;57132;51.972;4.450;2023-05-07T06:11:18;33.78;;;24.23;;
69835;SDS011;57132;51.972;4.450;2023-05-07T06:13:43;32.83;;;23.67;;
69835;SDS011;57132;51.972;4.450;2023-05-07T06:16:09;33.15;;;23.25;;
69835;SDS011;57132;51.972;4.450;2023-05-07T06:18:34;29.92;;;22.55;;
69835;SDS011;57132;51.972;4.450;2023-05-07T06:21:01;31.38;;;24.77;;
69835;SDS011;57132;51.972;4.450;2023-05-07T06:23:26;29.95;;;21.60;;
69835;SDS011;57132;51.972;4.450;2023-05-07T06:25:51;28.23;;;22.63;;
69835;SDS011;57132;51.972;4.450;2023-05-07T06:28:17;27.88;;;21.02;;
69835;SDS011;57132;51.972;4.450;2023-05-07T06:30:42;32.58;;;22.25;;
69835;SDS011;57132;51.972;4.450;2023-05-07T06:33:08;26.85;;;19.80;;
69835;SDS011;57132;51.972;4.450;2023-05-07T06:35:33;25.27;;;20.42;;
69835;SDS011;57132;51.972;4.450;2023-05-07T06:37:59;26.90;;;20.00;;
69835;SDS011;57132;51.972;4.450;2023-05-07T06:40:25;26.40;;;20.67;;
69835;SDS011;57132;51.972;4.450;2023-05-07T06:42:50;20.15;;;16.90;;
69835;SDS011;57132;51.972;4.450;2023-05-07T06:45:16;19.67;;;14.70;;
69835;SDS011;57132;51.972;4.450;2023-05-07T06:47:41;16.67;;;13.63;;
69835;SDS011;57132;51.972;4.450;2023-05-07T06:50:07;18.50;;;14.75;;
69835;SDS011;57132;51.972;4.450;2023-05-07T06:52:32;17.45;;;14.15;;
69835;SDS011;57132;51.972;4.450;2023-05-07T06:54:58;17.75;;;14.45;;
69835;SDS011;57132;51.972;4.450;2023-05-07T06:57:23;16.73;;;14.50;;
69835;SDS011;57132;51.972;4.450;2023-05-07T06:59:49;19.35;;;15.27;;
69835;SDS011;57132;51.972;4.450;2023-05-07T07:02:14;19.08;;;15.13;;
69835;SDS011;57132;51.972;4.450;2023-05-07T07:04:39;22.38;;;16.80;;
69835;SDS011;57132;51.972;4.450;2023-05-07T07:07:06;18.42;;;14.27;;
69835;SDS011;57132;51.972;4.450;2023-05-07T07:09:31;15.43;;;13.68;;
69835;SDS011;57132;51.972;4.450;2023-05-07T07:11:56;14.52;;;12.27;;
69835;SDS011;57132;51.972;4.450;2023-05-07T07:14:22;16.90;;;13.68;;
69835;SDS011;57132;51.972;4.450;2023-05-07T07:16:47;15.98;;;13.23;;
69835;SDS011;57132;51.972;4.450;2023-05-07T07:19:12;15.45;;;13.27;;
69835;SDS011;57132;51.972;4.450;2023-05-07T07:21:40;13.10;;;11.63;;
69835;SDS011;57132;51.972;4.450;2023-05-07T07:24:05;15.60;;;11.65;;
69835;SDS011;57132;51.972;4.450;2023-05-07T07:26:30;16.50;;;10.75;;
69835;SDS011;57132;51.972;4.450;2023-05-07T07:28:56;12.43;;;9.90;;
69835;SDS011;57132;51.972;4.450;2023-05-07T07:31:21;13.48;;;10.75;;
69835;SDS011;57132;51.972;4.450;2023-05-07T07:33:46;12.85;;;10.70;;
69835;SDS011;57132;51.972;4.450;2023-05-07T07:36:12;15.20;;;11.05;;
69835;SDS011;57132;51.972;4.450;2023-05-07T07:38:37;16.05;;;10.70;;
69835;SDS011;57132;51.972;4.450;2023-05-07T07:41:02;15.55;;;10.50;;
69835;SDS011;57132;51.972;4.450;2023-05-07T07:43:28;13.73;;;9.80;;
69835;SDS011;57132;51.972;4.450;2023-05-07T07:45:53;11.05;;;9.55;;
69835;SDS011;57132;51.972;4.450;2023-05-07T07:48:19;14.10;;;11.07;;
69835;SDS011;57132;51.972;4.450;2023-05-07T07:50:44;13.63;;;11.90;;
69835;SDS011;57132;51.972;4.450;2023-05-07T07:53:09;14.07;;;11.13;;
69835;SDS011;57132;51.972;4.450;2023-05-07T07:55:38;14.02;;;11.27;;
69835;SDS011;57132;51.972;4.450;2023-05-07T07:58:05;15.20;;;12.20;;
69835;SDS011;57132;51.972;4.450;2023-05-07T08:00:30;20.23;;;12.85;;
69835;SDS011;57132;51.972;4.450;2023-05-07T08:02:55;17.50;;;11.82;;
69835;SDS011;57132;51.972;4.450;2023-05-07T08:05:20;17.90;;;13.27;;
69835;SDS011;57132;51.972;4.450;2023-05-07T08:07:46;16.17;;;12.80;;
69835;SDS011;57132;51.972;4.450;2023-05-07T08:10:16;14.27;;;11.60;;
69835;SDS011;57132;51.972;4.450;2023-05-07T08:12:46;20.15;;;13.02;;
69835;SDS011;57132;51.972;4.450;2023-05-07T08:15:14;16.77;;;13.07;;
69835;SDS011;57132;51.972;4.450;2023-05-07T08:17:40;17.30;;;14.30;;
69835;SDS011;57132;51.972;4.450;2023-05-07T08:20:06;19.10;;;14.73;;
69835;SDS011;57132;51.972;4.450;2023-05-07T08:22:32;20.58;;;14.90;;
69835;SDS011;57132;51.972;4.450;2023-05-07T08:24:59;16.25;;;12.30;;
69835;SDS011;57132;51.972;4.450;2023-05-07T08:27:25;19.60;;;12.75;;
69835;SDS011;57132;51.972;4.450;2023-05-07T08:29:50;17.73;;;12.95;;
69835;SDS011;57132;51.972;4.450;2023-05-07T08:32:15;16.55;;;13.13;;
69835;SDS011;57132;51.972;4.450;2023-05-07T08:34:41;20.85;;;15.43;;
69835;SDS011;57132;51.972;4.450;2023-05-07T08:37:06;20.80;;;14.70;;
69835;SDS011;57132;51.972;4.450;2023-05-07T08:39:31;18.92;;;13.48;;
69835;SDS011;57132;51.972;4.450;2023-05-07T08:41:57;18.02;;;14.07;;
69835;SDS011;57132;51.972;4.450;2023-05-07T08:44:27;17.00;;;13.20;;
69835;SDS011;57132;51.972;4.450;2023-05-07T08:46:56;15.68;;;11.88;;
69835;SDS011;57132;51.972;4.450;2023-05-07T08:49:21;14.10;;;10.40;;
69835;SDS011;57132;51.972;4.450;2023-05-07T08:51:47;14.32;;;10.65;;
69835;SDS011;57132;51.972;4.450;2023-05-07T08:54:15;19.15;;;13.65;;
69835;SDS011;57132;51.972;4.450;2023-05-07T08:56:41;15.70;;;12.13;;
69835;SDS011;57132;51.972;4.450;2023-05-07T08:59:06;15.52;;;12.40;;
69835;SDS011;57132;51.972;4.450;2023-05-07T09:01:32;16.73;;;12.52;;
69835;SDS011;57132;51.972;4.450;2023-05-07T09:04:01;13.60;;;10.10;;
69835;SDS011;57132;51.972;4.450;2023-05-07T09:06:26;12.52;;;9.55;;
69835;SDS011;57132;51.972;4.450;2023-05-07T09:08:53;14.88;;;10.50;;
69835;SDS011;57132;51.972;4.450;2023-05-07T09:11:20;18.00;;;13.32;;
69835;SDS011;57132;51.972;4.450;2023-05-07T09:13:49;18.48;;;13.05;;
69835;SDS011;57132;51.972;4.450;2023-05-07T09:16:19;17.52;;;12.93;;
69835;SDS011;57132;51.972;4.450;2023-05-07T09:18:46;16.67;;;11.93;;
69835;SDS011;57132;51.972;4.450;2023-05-07T09:21:15;15.05;;;12.30;;
69835;SDS011;57132;51.972;4.450;2023-05-07T09:23:43;18.77;;;16.00;;
69835;SDS011;57132;51.972;4.450;2023-05-07T09:26:09;22.48;;;15.40;;
69835;SDS011;57132;51.972;4.450;2023-05-07T09:28:43;19.35;;;15.25;;
69835;SDS011;57132;51.972;4.450;2023-05-07T09:31:09;21.27;;;14.32;;
69835;SDS011;57132;51.972;4.450;2023-05-07T09:33:35;19.98;;;12.77;;
69835;SDS011;57132;51.972;4.450;2023-05-07T09:36:04;18.88;;;14.02;;
69835;SDS011;57132;51.972;4.450;2023-05-07T09:38:32;18.13;;;14.45;;
69835;SDS011;57132;51.972;4.450;2023-05-07T09:41:08;20.58;;;14.18;;
69835;SDS011;57132;51.972;4.450;2023-05-07T09:43:35;18.23;;;12.93;;
69835;SDS011;57132;51.972;4.450;2023-05-07T09:46:03;19.00;;;13.05;;
69835;SDS011;57132;51.972;4.450;2023-05-07T09:48:30;17.38;;;12.18;;
69835;SDS011;57132;51.972;4.450;2023-05-07T09:50:57;13.90;;;10.82;;
69835;SDS011;57132;51.972;4.450;2023-05-07T09:53:28;15.23;;;9.85;;
69835;SDS011;57132;51.972;4.450;2023-05-07T09:55:55;19.55;;;10.15;;
69835;SDS011;57132;51.972;4.450;2023-05-07T09:58:22;15.65;;;10.80;;
69835;SDS011;57132;51.972;4.450;2023-05-07T10:00:48;20.02;;;12.30;;
69835;SDS011;57132;51.972;4.450;2023-05-07T10:03:15;21.95;;;12.77;;
69835;SDS011;57132;51.972;4.450;2023-05-07T10:05:41;17.42;;;12.25;;
69835;SDS011;57132;51.972;4.450;2023-05-07T10:08:09;15.88;;;10.68;;
69835;SDS011;57132;51.972;4.450;2023-05-07T10:10:35;16.42;;;10.35;;
69835;SDS011;57132;51.972;4.450;2023-05-07T10:13:01;16.80;;;11.48;;
69835;SDS011;57132;51.972;4.450;2023-05-07T10:15:30;13.55;;;8.60;;
69835;SDS011;57132;51.972;4.450;2023-05-07T10:17:57;20.20;;;9.90;;
69835;SDS011;57132;51.972;4.450;2023-05-07T10:20:23;15.10;;;8.48;;
69835;SDS011;57132;51.972;4.450;2023-05-07T10:22:50;14.88;;;7.50;;
69835;SDS011;57132;51.972;4.450;2023-05-07T10:25:21;14.23;;;7.70;;
69835;SDS011;57132;51.972;4.450;2023-05-07T10:27:50;16.88;;;9.27;;
69835;SDS011;57132;51.972;4.450;2023-05-07T10:32:59;11.95;;;8.20;;
69835;SDS011;57132;51.972;4.450;2023-05-07T10:35:31;18.17;;;10.10;;
69835;SDS011;57132;51.972;4.450;2023-05-07T10:38:02;15.93;;;6.95;;
69835;SDS011;57132;51.972;4.450;2023-05-07T10:40:28;10.70;;;6.72;;
69835;SDS011;57132;51.972;4.450;2023-05-07T10:43:03;14.15;;;7.80;;
69835;SDS011;57132;51.972;4.450;2023-05-07T10:45:32;12.85;;;7.40;;
69835;SDS011;57132;51.972;4.450;2023-05-07T10:48:14;14.90;;;7.28;;
69835;SDS011;57132;51.972;4.450;2023-05-07T10:50:40;11.85;;;6.85;;
69835;SDS011;57132;51.972;4.450;2023-05-07T10:55:43;9.85;;;5.93;;
69835;SDS011;57132;51.972;4.450;2023-05-07T11:00:46;11.65;;;6.45;;
69835;SDS011;57132;51.972;4.450;2023-05-07T11:03:12;12.75;;;6.70;;
69835;SDS011;57132;51.972;4.450;2023-05-07T11:05:39;13.93;;;8.13;;
69835;SDS011;57132;51.972;4.450;2023-05-07T11:08:05;14.00;;;7.22;;
69835;SDS011;57132;51.972;4.450;2023-05-07T11:13:16;14.82;;;8.57;;
69835;SDS011;57132;51.972;4.450;2023-05-07T11:15:45;15.23;;;8.00;;
69835;SDS011;57132;51.972;4.450;2023-05-07T11:18:13;12.32;;;6.45;;
69835;SDS011;57132;51.972;4.450;2023-05-07T11:20:50;14.10;;;6.10;;
69835;SDS011;57132;51.972;4.450;2023-05-07T11:26:18;12.32;;;7.78;;
69835;SDS011;57132;51.972;4.450;2023-05-07T11:28:43;12.75;;;7.88;;
69835;SDS011;57132;51.972;4.450;2023-05-07T11:31:09;10.77;;;8.90;;
69835;SDS011;57132;51.972;4.450;2023-05-07T11:33:36;16.90;;;9.25;;
69835;SDS011;57132;51.972;4.450;2023-05-07T11:36:02;14.98;;;9.25;;
69835;SDS011;57132;51.972;4.450;2023-05-07T11:38:30;19.15;;;10.70;;
69835;SDS011;57132;51.972;4.450;2023-05-07T11:41:07;12.57;;;9.10;;
69835;SDS011;57132;51.972;4.450;2023-05-07T11:43:33;18.27;;;9.63;;
69835;SDS011;57132;51.972;4.450;2023-05-07T11:46:07;17.08;;;9.75;;
69835;SDS011;57132;51.972;4.450;2023-05-07T11:48:34;12.85;;;9.15;;
69835;SDS011;57132;51.972;4.450;2023-05-07T11:51:00;12.45;;;10.15;;
69835;SDS011;57132;51.972;4.450;2023-05-07T11:53:27;14.20;;;9.85;;
69835;SDS011;57132;51.972;4.450;2023-05-07T11:56:00;19.50;;;10.80;;
69835;SDS011;57132;51.972;4.450;2023-05-07T11:58:26;15.40;;;11.18;;
69835;SDS011;57132;51.972;4.450;2023-05-07T12:00:52;16.33;;;9.90;;
69835;SDS011;57132;51.972;4.450;2023-05-07T12:03:18;17.67;;;10.40;;
69835;SDS011;57132;51.972;4.450;2023-05-07T12:05:44;15.05;;;11.30;;
69835;SDS011;57132;51.972;4.450;2023-05-07T12:08:13;21.17;;;11.93;;
69835;SDS011;57132;51.972;4.450;2023-05-07T12:10:40;16.60;;;12.48;;
69835;SDS011;57132;51.972;4.450;2023-05-07T12:13:16;19.58;;;11.95;;
69835;SDS011;57132;51.972;4.450;2023-05-07T12:15:46;19.02;;;12.38;;
69835;SDS011;57132;51.972;4.450;2023-05-07T12:18:15;15.50;;;12.50;;
69835;SDS011;57132;51.972;4.450;2023-05-07T12:20:40;18.95;;;13.73;;
69835;SDS011;57132;51.972;4.450;2023-05-07T12:23:06;28.77;;;16.27;;
69835;SDS011;57132;51.972;4.450;2023-05-07T12:25:32;19.92;;;15.88;;
69835;SDS011;57132;51.972;4.450;2023-05-07T12:28:00;18.60;;;12.38;;
69835;SDS011;57132;51.972;4.450;2023-05-07T12:30:26;20.05;;;15.32;;
69835;SDS011;57132;51.972;4.450;2023-05-07T12:32:54;19.25;;;12.20;;
69835;SDS011;57132;51.972;4.450;2023-05-07T12:35:27;30.45;;;17.77;;
69835;SDS011;57132;51.972;4.450;2023-05-07T12:37:56;29.02;;;18.70;;
69835;SDS011;57132;51.972;4.450;2023-05-07T12:40:24;30.85;;;17.30;;
69835;SDS011;57132;51.972;4.450;2023-05-07T12:43:00;27.38;;;17.52;;
69835;SDS011;57132;51.972;4.450;2023-05-07T12:45:25;34.60;;;20.75;;
69835;SDS011;57132;51.972;4.450;2023-05-07T12:47:51;31.73;;;19.83;;
69835;SDS011;57132;51.972;4.450;2023-05-07T12:50:16;32.00;;;19.55;;
69835;SDS011;57132;51.972;4.450;2023-05-07T12:52:43;36.35;;;18.65;;
69835;SDS011;57132;51.972;4.450;2023-05-07T12:55:12;33.05;;;19.65;;
69835;SDS011;57132;51.972;4.450;2023-05-07T12:57:41;26.05;;;17.17;;
69835;SDS011;57132;51.972;4.450;2023-05-07T13:00:08;31.05;;;17.30;;
69835;SDS011;57132;51.972;4.450;2023-05-07T13:02:34;34.65;;;20.65;;
69835;SDS011;57132;51.972;4.450;2023-05-07T13:05:03;37.13;;;22.95;;
69835;SDS011;57132;51.972;4.450;2023-05-07T13:07:28;34.58;;;23.20;;
69835;SDS011;57132;51.972;4.450;2023-05-07T13:09:54;32.60;;;22.40;;
69835;SDS011;57132;51.972;4.450;2023-05-07T13:12:19;37.83;;;22.75;;
69835;SDS011;57132;51.972;4.450;2023-05-07T13:14:44;35.47;;;23.42;;
69835;SDS011;57132;51.972;4.450;2023-05-07T13:17:10;41.78;;;24.50;;
69835;SDS011;57132;51.972;4.450;2023-05-07T13:19:35;38.97;;;25.38;;
69835;SDS011;57132;51.972;4.450;2023-05-07T13:22:02;37.80;;;24.25;;
69835;SDS011;57132;51.972;4.450;2023-05-07T13:24:28;45.55;;;24.02;;
69835;SDS011;57132;51.972;4.450;2023-05-07T13:26:53;37.47;;;24.05;;
69835;SDS011;57132;51.972;4.450;2023-05-07T13:29:18;43.53;;;26.00;;
69835;SDS011;57132;51.972;4.450;2023-05-07T13:31:44;36.65;;;23.98;;
69835;SDS011;57132;51.972;4.450;2023-05-07T13:34:09;42.40;;;26.75;;
69835;SDS011;57132;51.972;4.450;2023-05-07T13:36:35;45.25;;;25.75;;
69835;SDS011;57132;51.972;4.450;2023-05-07T13:39:02;45.95;;;28.20;;
69835;SDS011;57132;51.972;4.450;2023-05-07T13:41:28;40.42;;;26.50;;
69835;SDS011;57132;51.972;4.450;2023-05-07T13:43:54;44.45;;;26.23;;
69835;SDS011;57132;51.972;4.450;2023-05-07T13:46:22;41.97;;;26.70;;
69835;SDS011;57132;51.972;4.450;2023-05-07T13:48:47;45.55;;;26.80;;
69835;SDS011;57132;51.972;4.450;2023-05-07T13:51:13;47.38;;;27.48;;
69835;SDS011;57132;51.972;4.450;2023-05-07T13:53:38;42.60;;;26.35;;
69835;SDS011;57132;51.972;4.450;2023-05-07T13:56:04;42.78;;;26.23;;
69835;SDS011;57132;51.972;4.450;2023-05-07T13:58:30;44.75;;;25.45;;
69835;SDS011;57132;51.972;4.450;2023-05-07T14:00:56;43.58;;;25.85;;
69835;SDS011;57132;51.972;4.450;2023-05-07T14:03:22;41.10;;;25.05;;
69835;SDS011;57132;51.972;4.450;2023-05-07T14:05:47;42.28;;;26.52;;
69835;SDS011;57132;51.972;4.450;2023-05-07T14:08:12;42.75;;;25.58;;
69835;SDS011;57132;51.972;4.450;2023-05-07T14:10:39;36.97;;;22.58;;
69835;SDS011;57132;51.972;4.450;2023-05-07T14:13:05;37.13;;;24.73;;
69835;SDS011;57132;51.972;4.450;2023-05-07T14:15:31;44.10;;;25.02;;
69835;SDS011;57132;51.972;4.450;2023-05-07T14:17:57;38.65;;;23.92;;
69835;SDS011;57132;51.972;4.450;2023-05-07T14:20:24;41.70;;;25.38;;
69835;SDS011;57132;51.972;4.450;2023-05-07T14:22:49;39.45;;;24.33;;
69835;SDS011;57132;51.972;4.450;2023-05-07T14:25:15;41.13;;;25.73;;
69835;SDS011;57132;51.972;4.450;2023-05-07T14:27:40;42.50;;;25.40;;
69835;SDS011;57132;51.972;4.450;2023-05-07T14:30:06;37.72;;;24.33;;
69835;SDS011;57132;51.972;4.450;2023-05-07T14:32:32;36.38;;;23.40;;